Colville, Kentucky
Current Conditions -  °F | °C
As of 4:35 PM on Saturday 25 Oct 2014 (Local Time) from KIOB Reporting Station
Broken Clouds Broken Clouds  
Wind Chill: 70°   Ceiling: 2700
Heat Index: 70°   Visibility: 7mi
Dew Point: 57°   Wind: 8mph
Humidity: 64%   Direction: 250°WSW
Pressure: 29.97"   Gusts: NA
Location:  38.4145°N, 84.2859°W
Report Text: KIOB 252035Z AUTO 25007KT 7SM BKN027 21/14 A2997 RMK AO2
Loading
Personal Weather Stations






























Interactive Weather Map
Tropical Storm Tracking
New forecast layout! Learn more

10-Day Weather Forecast

Advertisements
Track Severe Weather on mobile